sensor_id;sensor_type;location;lat;lon;timestamp;temperature;humidity
17128;DHT22;8679;50.842;4.322;2022-10-13T00:00:24;13.80;99.90
17128;DHT22;8679;50.842;4.322;2022-10-13T00:02:50;13.70;99.90
17128;DHT22;8679;50.842;4.322;2022-10-13T00:05:16;13.70;99.90
17128;DHT22;8679;50.842;4.322;2022-10-13T00:07:42;13.70;99.90
17128;DHT22;8679;50.842;4.322;2022-10-13T00:10:08;13.70;99.90
17128;DHT22;8679;50.842;4.322;2022-10-13T00:12:35;13.70;99.90
17128;DHT22;8679;50.842;4.322;2022-10-13T00:15:02;13.80;99.90
17128;DHT22;8679;50.842;4.322;2022-10-13T00:17:28;13.70;99.90
17128;DHT22;8679;50.842;4.322;2022-10-13T00:19:53;13.80;99.90
17128;DHT22;8679;50.842;4.322;2022-10-13T00:22:19;13.80;99.90
17128;DHT22;8679;50.842;4.322;2022-10-13T00:24:49;13.80;99.90
17128;DHT22;8679;50.842;4.322;2022-10-13T00:27:15;13.80;99.90
17128;DHT22;8679;50.842;4.322;2022-10-13T00:29:41;13.90;99.90
17128;DHT22;8679;50.842;4.322;2022-10-13T00:32:06;13.90;99.90
17128;DHT22;8679;50.842;4.322;2022-10-13T00:34:32;13.80;99.90
17128;DHT22;8679;50.842;4.322;2022-10-13T00:36:58;13.90;99.90
17128;DHT22;8679;50.842;4.322;2022-10-13T00:39:23;13.90;99.90
17128;DHT22;8679;50.842;4.322;2022-10-13T00:41:50;13.90;99.90
17128;DHT22;8679;50.842;4.322;2022-10-13T00:47:20;13.80;99.90
17128;DHT22;8679;50.842;4.322;2022-10-13T00:49:47;13.80;99.90
17128;DHT22;8679;50.842;4.322;2022-10-13T00:52:14;13.80;99.90
17128;DHT22;8679;50.842;4.322;2022-10-13T00:54:41;13.80;99.90
17128;DHT22;8679;50.842;4.322;2022-10-13T00:57:08;13.80;99.90
17128;DHT22;8679;50.842;4.322;2022-10-13T00:59:34;13.80;99.90
17128;DHT22;8679;50.842;4.322;2022-10-13T01:02:01;13.80;99.90
17128;DHT22;8679;50.842;4.322;2022-10-13T01:04:33;13.80;99.90
17128;DHT22;8679;50.842;4.322;2022-10-13T01:07:03;13.90;99.90
17128;DHT22;8679;50.842;4.322;2022-10-13T01:09:29;13.90;99.90
17128;DHT22;8679;50.842;4.322;2022-10-13T01:12:34;13.90;99.90
17128;DHT22;8679;50.842;4.322;2022-10-13T01:15:08;13.90;99.90
17128;DHT22;8679;50.842;4.322;2022-10-13T01:34:33;13.60;99.90
17128;DHT22;8679;50.842;4.322;2022-10-13T01:39:52;13.60;99.90
17128;DHT22;8679;50.842;4.322;2022-10-13T01:42:36;13.60;99.90
17128;DHT22;8679;50.842;4.322;2022-10-13T01:45:06;13.60;99.90
17128;DHT22;8679;50.842;4.322;2022-10-13T01:47:35;13.60;99.90
17128;DHT22;8679;50.842;4.322;2022-10-13T01:50:02;13.50;99.90
17128;DHT22;8679;50.842;4.322;2022-10-13T01:52:32;13.50;99.90
17128;DHT22;8679;50.842;4.322;2022-10-13T01:55:05;13.50;99.90
17128;DHT22;8679;50.842;4.322;2022-10-13T01:57:40;13.50;99.90
17128;DHT22;8679;50.842;4.322;2022-10-13T02:00:07;13.50;99.90
17128;DHT22;8679;50.842;4.322;2022-10-13T02:08:14;13.50;99.90
17128;DHT22;8679;50.842;4.322;2022-10-13T02:13:13;13.40;99.90
17128;DHT22;8679;50.842;4.322;2022-10-13T02:15:45;13.40;99.90
17128;DHT22;8679;50.842;4.322;2022-10-13T02:18:13;13.40;99.90
17128;DHT22;8679;50.842;4.322;2022-10-13T02:20:40;13.40;99.90
17128;DHT22;8679;50.842;4.322;2022-10-13T02:23:11;13.40;99.90
17128;DHT22;8679;50.842;4.322;2022-10-13T02:25:38;13.30;99.90
17128;DHT22;8679;50.842;4.322;2022-10-13T02:28:05;13.30;99.90
17128;DHT22;8679;50.842;4.322;2022-10-13T02:30:32;13.30;99.90
17128;DHT22;8679;50.842;4.322;2022-10-13T02:32:58;13.20;99.90
17128;DHT22;8679;50.842;4.322;2022-10-13T02:35:24;13.20;99.90
17128;DHT22;8679;50.842;4.322;2022-10-13T02:37:50;13.30;99.90
17128;DHT22;8679;50.842;4.322;2022-10-13T02:40:16;13.30;99.90
17128;DHT22;8679;50.842;4.322;2022-10-13T02:42:41;13.30;99.90
17128;DHT22;8679;50.842;4.322;2022-10-13T02:45:08;13.30;99.90
17128;DHT22;8679;50.842;4.322;2022-10-13T02:47:33;13.30;99.90
17128;DHT22;8679;50.842;4.322;2022-10-13T02:49:59;13.20;99.90
17128;DHT22;8679;50.842;4.322;2022-10-13T02:52:25;13.20;99.90
17128;DHT22;8679;50.842;4.322;2022-10-13T02:54:50;13.20;99.90
17128;DHT22;8679;50.842;4.322;2022-10-13T02:57:17;13.10;99.90
17128;DHT22;8679;50.842;4.322;2022-10-13T02:59:43;13.20;99.90
17128;DHT22;8679;50.842;4.322;2022-10-13T03:02:08;13.10;99.90
17128;DHT22;8679;50.842;4.322;2022-10-13T03:04:34;13.10;99.90
17128;DHT22;8679;50.842;4.322;2022-10-13T03:07:00;13.10;99.90
17128;DHT22;8679;50.842;4.322;2022-10-13T03:09:26;13.10;99.90
17128;DHT22;8679;50.842;4.322;2022-10-13T03:11:52;13.10;99.90
17128;DHT22;8679;50.842;4.322;2022-10-13T03:14:18;13.00;99.90
17128;DHT22;8679;50.842;4.322;2022-10-13T03:16:43;13.10;99.90
17128;DHT22;8679;50.842;4.322;2022-10-13T03:19:09;13.10;99.90
17128;DHT22;8679;50.842;4.322;2022-10-13T03:21:39;13.10;99.90
17128;DHT22;8679;50.842;4.322;2022-10-13T03:24:05;13.00;99.90
17128;DHT22;8679;50.842;4.322;2022-10-13T03:26:32;13.00;99.90
17128;DHT22;8679;50.842;4.322;2022-10-13T03:28:58;13.00;99.90
17128;DHT22;8679;50.842;4.322;2022-10-13T03:31:23;13.10;99.90
17128;DHT22;8679;50.842;4.322;2022-10-13T03:33:49;13.00;99.90
17128;DHT22;8679;50.842;4.322;2022-10-13T03:36:16;13.00;99.90
17128;DHT22;8679;50.842;4.322;2022-10-13T03:38:42;13.00;99.90
17128;DHT22;8679;50.842;4.322;2022-10-13T03:41:10;13.00;99.90
17128;DHT22;8679;50.842;4.322;2022-10-13T03:43:37;13.00;99.90
17128;DHT22;8679;50.842;4.322;2022-10-13T03:46:05;13.00;99.90
17128;DHT22;8679;50.842;4.322;2022-10-13T03:48:32;13.00;99.90
17128;DHT22;8679;50.842;4.322;2022-10-13T03:50:58;12.90;99.90
17128;DHT22;8679;50.842;4.322;2022-10-13T03:53:24;12.90;99.90
17128;DHT22;8679;50.842;4.322;2022-10-13T03:55:53;12.90;99.90
17128;DHT22;8679;50.842;4.322;2022-10-13T03:58:22;13.00;99.90
17128;DHT22;8679;50.842;4.322;2022-10-13T04:00:48;13.00;99.90
17128;DHT22;8679;50.842;4.322;2022-10-13T04:03:15;13.00;99.90
17128;DHT22;8679;50.842;4.322;2022-10-13T04:05:41;13.00;99.90
17128;DHT22;8679;50.842;4.322;2022-10-13T04:08:06;13.10;99.90
17128;DHT22;8679;50.842;4.322;2022-10-13T04:10:32;13.10;99.90
17128;DHT22;8679;50.842;4.322;2022-10-13T04:12:58;13.10;99.90
17128;DHT22;8679;50.842;4.322;2022-10-13T04:15:24;13.00;99.90
17128;DHT22;8679;50.842;4.322;2022-10-13T04:17:50;13.00;99.90
17128;DHT22;8679;50.842;4.322;2022-10-13T04:20:16;13.00;99.90
17128;DHT22;8679;50.842;4.322;2022-10-13T04:22:41;13.00;99.90
17128;DHT22;8679;50.842;4.322;2022-10-13T04:25:07;13.10;99.90
17128;DHT22;8679;50.842;4.322;2022-10-13T04:27:33;13.10;99.90
17128;DHT22;8679;50.842;4.322;2022-10-13T04:30:03;13.10;99.90
17128;DHT22;8679;50.842;4.322;2022-10-13T04:32:29;13.00;99.90
17128;DHT22;8679;50.842;4.322;2022-10-13T04:34:55;13.00;99.90
17128;DHT22;8679;50.842;4.322;2022-10-13T04:37:20;13.00;99.90
17128;DHT22;8679;50.842;4.322;2022-10-13T04:39:46;13.00;99.90
17128;DHT22;8679;50.842;4.322;2022-10-13T04:42:12;13.00;99.90
17128;DHT22;8679;50.842;4.322;2022-10-13T04:44:37;13.00;99.90
17128;DHT22;8679;50.842;4.322;2022-10-13T04:47:03;13.00;99.90
17128;DHT22;8679;50.842;4.322;2022-10-13T04:49:29;13.00;99.90
17128;DHT22;8679;50.842;4.322;2022-10-13T04:51:55;13.10;99.90
17128;DHT22;8679;50.842;4.322;2022-10-13T04:54:21;13.10;99.90
17128;DHT22;8679;50.842;4.322;2022-10-13T04:56:46;13.00;99.90
17128;DHT22;8679;50.842;4.322;2022-10-13T04:59:12;13.10;99.90
17128;DHT22;8679;50.842;4.322;2022-10-13T05:01:38;13.10;99.90
17128;DHT22;8679;50.842;4.322;2022-10-13T05:04:04;13.10;99.90
17128;DHT22;8679;50.842;4.322;2022-10-13T05:06:32;13.10;99.90
17128;DHT22;8679;50.842;4.322;2022-10-13T05:08:58;13.10;99.90
17128;DHT22;8679;50.842;4.322;2022-10-13T05:11:25;13.20;99.90
17128;DHT22;8679;50.842;4.322;2022-10-13T05:13:51;13.10;99.90
17128;DHT22;8679;50.842;4.322;2022-10-13T05:16:18;13.20;99.90
17128;DHT22;8679;50.842;4.322;2022-10-13T05:18:46;13.20;99.90
17128;DHT22;8679;50.842;4.322;2022-10-13T05:21:12;13.20;99.90
17128;DHT22;8679;50.842;4.322;2022-10-13T05:23:38;13.10;99.90
17128;DHT22;8679;50.842;4.322;2022-10-13T05:26:07;13.20;99.90
17128;DHT22;8679;50.842;4.322;2022-10-13T05:28:33;13.20;99.90
17128;DHT22;8679;50.842;4.322;2022-10-13T05:31:16;13.10;99.90
17128;DHT22;8679;50.842;4.322;2022-10-13T05:33:42;13.10;99.90
17128;DHT22;8679;50.842;4.322;2022-10-13T05:36:19;13.10;99.90
17128;DHT22;8679;50.842;4.322;2022-10-13T05:38:53;13.10;99.90
17128;DHT22;8679;50.842;4.322;2022-10-13T05:41:20;13.10;99.90
17128;DHT22;8679;50.842;4.322;2022-10-13T05:43:46;13.10;99.90
17128;DHT22;8679;50.842;4.322;2022-10-13T05:46:13;13.20;99.90
17128;DHT22;8679;50.842;4.322;2022-10-13T05:48:38;13.10;99.90
17128;DHT22;8679;50.842;4.322;2022-10-13T05:51:11;13.10;99.90
17128;DHT22;8679;50.842;4.322;2022-10-13T05:53:41;13.10;99.90
17128;DHT22;8679;50.842;4.322;2022-10-13T05:56:11;13.10;99.90
17128;DHT22;8679;50.842;4.322;2022-10-13T05:58:45;13.10;99.90
17128;DHT22;8679;50.842;4.322;2022-10-13T06:01:14;13.10;99.90
17128;DHT22;8679;50.842;4.322;2022-10-13T06:03:42;13.20;99.90
17128;DHT22;8679;50.842;4.322;2022-10-13T06:06:08;13.10;99.90
17128;DHT22;8679;50.842;4.322;2022-10-13T06:08:34;13.10;99.90
17128;DHT22;8679;50.842;4.322;2022-10-13T06:11:02;13.20;99.90
17128;DHT22;8679;50.842;4.322;2022-10-13T06:13:28;13.20;99.90
17128;DHT22;8679;50.842;4.322;2022-10-13T06:15:53;13.20;99.90
17128;DHT22;8679;50.842;4.322;2022-10-13T06:18:19;13.20;99.90
17128;DHT22;8679;50.842;4.322;2022-10-13T06:20:45;13.20;99.90
17128;DHT22;8679;50.842;4.322;2022-10-13T06:23:10;13.20;99.90
17128;DHT22;8679;50.842;4.322;2022-10-13T06:25:36;13.20;99.90
17128;DHT22;8679;50.842;4.322;2022-10-13T06:28:02;13.20;99.90
17128;DHT22;8679;50.842;4.322;2022-10-13T06:30:28;13.30;99.90
17128;DHT22;8679;50.842;4.322;2022-10-13T06:32:53;13.30;99.90
17128;DHT22;8679;50.842;4.322;2022-10-13T06:35:22;13.30;99.90
17128;DHT22;8679;50.842;4.322;2022-10-13T06:37:48;13.30;99.90
17128;DHT22;8679;50.842;4.322;2022-10-13T06:40:15;13.30;99.90
17128;DHT22;8679;50.842;4.322;2022-10-13T06:42:40;13.40;99.90
17128;DHT22;8679;50.842;4.322;2022-10-13T06:45:06;13.40;99.90
17128;DHT22;8679;50.842;4.322;2022-10-13T06:47:32;13.50;99.90
17128;DHT22;8679;50.842;4.322;2022-10-13T06:49:58;13.50;99.90
17128;DHT22;8679;50.842;4.322;2022-10-13T06:52:23;13.50;99.90
17128;DHT22;8679;50.842;4.322;2022-10-13T06:54:49;13.50;99.90
17128;DHT22;8679;50.842;4.322;2022-10-13T06:57:15;13.50;99.90
17128;DHT22;8679;50.842;4.322;2022-10-13T06:59:40;13.50;99.90
17128;DHT22;8679;50.842;4.322;2022-10-13T07:02:07;13.50;99.90
17128;DHT22;8679;50.842;4.322;2022-10-13T07:04:33;13.50;99.90
17128;DHT22;8679;50.842;4.322;2022-10-13T07:06:59;13.50;99.90
17128;DHT22;8679;50.842;4.322;2022-10-13T07:09:24;13.50;99.90
17128;DHT22;8679;50.842;4.322;2022-10-13T07:11:50;13.60;99.90
17128;DHT22;8679;50.842;4.322;2022-10-13T07:14:16;13.70;99.90
17128;DHT22;8679;50.842;4.322;2022-10-13T07:16:41;13.60;99.90
17128;DHT22;8679;50.842;4.322;2022-10-13T07:19:07;13.70;99.90
17128;DHT22;8679;50.842;4.322;2022-10-13T07:21:32;13.80;99.90
17128;DHT22;8679;50.842;4.322;2022-10-13T07:24:00;13.70;99.90
17128;DHT22;8679;50.842;4.322;2022-10-13T07:26:25;13.80;99.90
17128;DHT22;8679;50.842;4.322;2022-10-13T07:28:51;13.80;99.90
17128;DHT22;8679;50.842;4.322;2022-10-13T07:31:18;13.70;99.90
17128;DHT22;8679;50.842;4.322;2022-10-13T07:33:47;13.70;99.90
17128;DHT22;8679;50.842;4.322;2022-10-13T07:36:14;13.80;99.90
17128;DHT22;8679;50.842;4.322;2022-10-13T07:38:39;13.80;99.90
17128;DHT22;8679;50.842;4.322;2022-10-13T07:41:07;13.80;99.90
17128;DHT22;8679;50.842;4.322;2022-10-13T07:43:33;13.80;99.90
17128;DHT22;8679;50.842;4.322;2022-10-13T07:46:01;13.80;99.90
17128;DHT22;8679;50.842;4.322;2022-10-13T07:48:30;13.70;99.90
17128;DHT22;8679;50.842;4.322;2022-10-13T07:50:56;13.70;99.90
17128;DHT22;8679;50.842;4.322;2022-10-13T07:53:22;13.80;99.90
17128;DHT22;8679;50.842;4.322;2022-10-13T07:55:47;13.80;99.90
17128;DHT22;8679;50.842;4.322;2022-10-13T07:58:13;13.80;99.90
17128;DHT22;8679;50.842;4.322;2022-10-13T08:00:39;13.80;99.90
17128;DHT22;8679;50.842;4.322;2022-10-13T08:03:05;13.80;99.90
17128;DHT22;8679;50.842;4.322;2022-10-13T08:05:31;13.80;99.90
17128;DHT22;8679;50.842;4.322;2022-10-13T08:07:56;13.80;99.90
17128;DHT22;8679;50.842;4.322;2022-10-13T08:10:22;13.80;99.90
17128;DHT22;8679;50.842;4.322;2022-10-13T08:12:48;13.80;99.90
17128;DHT22;8679;50.842;4.322;2022-10-13T08:15:14;13.80;99.90
17128;DHT22;8679;50.842;4.322;2022-10-13T08:17:39;13.90;99.90
17128;DHT22;8679;50.842;4.322;2022-10-13T08:20:06;14.00;99.90
17128;DHT22;8679;50.842;4.322;2022-10-13T08:22:32;14.10;99.90
17128;DHT22;8679;50.842;4.322;2022-10-13T08:25:00;14.10;99.90
17128;DHT22;8679;50.842;4.322;2022-10-13T08:27:27;14.20;99.90
17128;DHT22;8679;50.842;4.322;2022-10-13T08:29:53;14.30;99.90
17128;DHT22;8679;50.842;4.322;2022-10-13T08:32:20;14.40;99.90
17128;DHT22;8679;50.842;4.322;2022-10-13T08:34:47;14.50;99.90
17128;DHT22;8679;50.842;4.322;2022-10-13T08:37:17;14.50;99.90
17128;DHT22;8679;50.842;4.322;2022-10-13T08:39:44;14.60;99.90
17128;DHT22;8679;50.842;4.322;2022-10-13T08:42:18;14.60;99.90
17128;DHT22;8679;50.842;4.322;2022-10-13T08:44:51;14.60;99.90
17128;DHT22;8679;50.842;4.322;2022-10-13T08:50:03;14.50;99.90
17128;DHT22;8679;50.842;4.322;2022-10-13T08:53:00;14.50;99.90
17128;DHT22;8679;50.842;4.322;2022-10-13T08:55:42;14.50;99.90
17128;DHT22;8679;50.842;4.322;2022-10-13T08:58:25;14.50;99.90
17128;DHT22;8679;50.842;4.322;2022-10-13T09:03:56;14.60;99.90
17128;DHT22;8679;50.842;4.322;2022-10-13T09:06:25;14.60;99.90
17128;DHT22;8679;50.842;4.322;2022-10-13T09:11:36;14.70;99.90
17128;DHT22;8679;50.842;4.322;2022-10-13T09:14:08;14.70;99.90
17128;DHT22;8679;50.842;4.322;2022-10-13T09:16:38;14.70;99.90
17128;DHT22;8679;50.842;4.322;2022-10-13T09:19:43;14.70;99.90
17128;DHT22;8679;50.842;4.322;2022-10-13T09:22:29;14.70;99.90
17128;DHT22;8679;50.842;4.322;2022-10-13T09:25:08;14.70;99.90
17128;DHT22;8679;50.842;4.322;2022-10-13T09:30:39;14.80;99.90
17128;DHT22;8679;50.842;4.322;2022-10-13T09:35:41;15.00;99.90
17128;DHT22;8679;50.842;4.322;2022-10-13T09:38:17;15.00;99.90
17128;DHT22;8679;50.842;4.322;2022-10-13T09:43:58;15.10;99.90
17128;DHT22;8679;50.842;4.322;2022-10-13T09:46:52;15.10;99.90
17128;DHT22;8679;50.842;4.322;2022-10-13T09:49:41;15.10;99.90
17128;DHT22;8679;50.842;4.322;2022-10-13T09:52:14;15.20;99.90
17128;DHT22;8679;50.842;4.322;2022-10-13T09:54:45;15.20;99.90
17128;DHT22;8679;50.842;4.322;2022-10-13T09:59:51;15.40;99.90
17128;DHT22;8679;50.842;4.322;2022-10-13T10:02:25;15.40;99.90
17128;DHT22;8679;50.842;4.322;2022-10-13T10:04:57;15.40;99.90
17128;DHT22;8679;50.842;4.322;2022-10-13T10:07:28;15.50;99.90
17128;DHT22;8679;50.842;4.322;2022-10-13T10:09:59;15.50;99.90
17128;DHT22;8679;50.842;4.322;2022-10-13T10:12:29;15.60;99.90
17128;DHT22;8679;50.842;4.322;2022-10-13T10:14:55;15.50;99.90
17128;DHT22;8679;50.842;4.322;2022-10-13T10:18:01;15.40;99.90
17128;DHT22;8679;50.842;4.322;2022-10-13T10:20:57;15.40;99.90
17128;DHT22;8679;50.842;4.322;2022-10-13T10:26:15;15.40;99.90
17128;DHT22;8679;50.842;4.322;2022-10-13T10:34:36;15.10;99.90
17128;DHT22;8679;50.842;4.322;2022-10-13T10:37:17;15.00;99.90
17128;DHT22;8679;50.842;4.322;2022-10-13T10:45:36;14.60;99.90
17128;DHT22;8679;50.842;4.322;2022-10-13T10:48:16;14.50;99.90
17128;DHT22;8679;50.842;4.322;2022-10-13T10:50:42;14.40;99.90
17128;DHT22;8679;50.842;4.322;2022-10-13T10:53:17;14.30;99.90
17128;DHT22;8679;50.842;4.322;2022-10-13T10:55:54;14.20;99.90
17128;DHT22;8679;50.842;4.322;2022-10-13T10:58:33;14.10;99.90
17128;DHT22;8679;50.842;4.322;2022-10-13T11:01:24;14.00;99.90
17128;DHT22;8679;50.842;4.322;2022-10-13T11:06:42;14.00;99.90
17128;DHT22;8679;50.842;4.322;2022-10-13T11:09:11;13.90;99.90
17128;DHT22;8679;50.842;4.322;2022-10-13T11:11:41;13.90;99.90
17128;DHT22;8679;50.842;4.322;2022-10-13T11:19:31;13.90;99.90
17128;DHT22;8679;50.842;4.322;2022-10-13T11:27:39;14.10;99.90
17128;DHT22;8679;50.842;4.322;2022-10-13T11:30:38;14.20;99.90
17128;DHT22;8679;50.842;4.322;2022-10-13T11:32:50;14.40;99.90
17128;DHT22;8679;50.842;4.322;2022-10-13T11:35:24;14.50;99.90
17128;DHT22;8679;50.842;4.322;2022-10-13T11:52:17;14.60;99.90
17128;DHT22;8679;50.842;4.322;2022-10-13T11:55:02;14.70;99.90
17128;DHT22;8679;50.842;4.322;2022-10-13T11:57:30;14.70;99.90
17128;DHT22;8679;50.842;4.322;2022-10-13T11:59:57;14.70;99.90
17128;DHT22;8679;50.842;4.322;2022-10-13T12:02:24;14.60;99.90
17128;DHT22;8679;50.842;4.322;2022-10-13T12:05:04;14.60;99.90
17128;DHT22;8679;50.842;4.322;2022-10-13T12:07:35;14.60;99.90
17128;DHT22;8679;50.842;4.322;2022-10-13T12:10:05;14.60;99.90
17128;DHT22;8679;50.842;4.322;2022-10-13T12:12:31;14.50;99.90
17128;DHT22;8679;50.842;4.322;2022-10-13T12:14:57;14.60;99.90
17128;DHT22;8679;50.842;4.322;2022-10-13T12:19:53;14.60;99.90
17128;DHT22;8679;50.842;4.322;2022-10-13T12:22:19;14.60;99.90
17128;DHT22;8679;50.842;4.322;2022-10-13T12:25:05;14.70;99.90
17128;DHT22;8679;50.842;4.322;2022-10-13T12:27:40;14.60;99.90
17128;DHT22;8679;50.842;4.322;2022-10-13T12:30:26;14.70;99.90
17128;DHT22;8679;50.842;4.322;2022-10-13T12:32:55;14.70;99.90
17128;DHT22;8679;50.842;4.322;2022-10-13T12:35:33;14.80;99.90
17128;DHT22;8679;50.842;4.322;2022-10-13T12:38:05;14.80;99.90
17128;DHT22;8679;50.842;4.322;2022-10-13T12:40:32;14.80;99.90
17128;DHT22;8679;50.842;4.322;2022-10-13T12:42:59;14.80;99.90
17128;DHT22;8679;50.842;4.322;2022-10-13T12:45:27;14.80;99.90
17128;DHT22;8679;50.842;4.322;2022-10-13T12:47:54;14.80;99.90
17128;DHT22;8679;50.842;4.322;2022-10-13T12:53:09;15.00;99.90
17128;DHT22;8679;50.842;4.322;2022-10-13T12:55:46;15.00;99.90
17128;DHT22;8679;50.842;4.322;2022-10-13T12:58:20;15.00;99.90
17128;DHT22;8679;50.842;4.322;2022-10-13T13:03:35;14.90;99.90
17128;DHT22;8679;50.842;4.322;2022-10-13T13:08:40;14.80;99.90
17128;DHT22;8679;50.842;4.322;2022-10-13T13:11:23;14.80;99.90
17128;DHT22;8679;50.842;4.322;2022-10-13T13:19:33;14.50;99.90
17128;DHT22;8679;50.842;4.322;2022-10-13T13:21:59;14.50;99.90
17128;DHT22;8679;50.842;4.322;2022-10-13T13:24:25;14.40;99.90
17128;DHT22;8679;50.842;4.322;2022-10-13T13:26:50;14.40;99.90
17128;DHT22;8679;50.842;4.322;2022-10-13T13:29:16;14.50;99.90
17128;DHT22;8679;50.842;4.322;2022-10-13T13:31:42;14.50;99.90
17128;DHT22;8679;50.842;4.322;2022-10-13T13:34:07;14.50;99.90
17128;DHT22;8679;50.842;4.322;2022-10-13T13:36:33;14.50;99.90
17128;DHT22;8679;50.842;4.322;2022-10-13T13:38:59;14.50;99.90
17128;DHT22;8679;50.842;4.322;2022-10-13T13:41:24;14.50;99.90
17128;DHT22;8679;50.842;4.322;2022-10-13T13:43:52;14.40;99.90
17128;DHT22;8679;50.842;4.322;2022-10-13T13:46:25;14.40;99.90
17128;DHT22;8679;50.842;4.322;2022-10-13T13:48:52;14.40;99.90
17128;DHT22;8679;50.842;4.322;2022-10-13T13:51:18;14.40;99.90
17128;DHT22;8679;50.842;4.322;2022-10-13T13:53:44;14.40;99.90
17128;DHT22;8679;50.842;4.322;2022-10-13T13:56:17;14.50;99.90
17128;DHT22;8679;50.842;4.322;2022-10-13T13:58:43;14.70;99.90
17128;DHT22;8679;50.842;4.322;2022-10-13T14:01:10;14.70;99.90
17128;DHT22;8679;50.842;4.322;2022-10-13T14:03:36;14.80;99.90
17128;DHT22;8679;50.842;4.322;2022-10-13T14:06:02;14.90;99.90
17128;DHT22;8679;50.842;4.322;2022-10-13T14:08:31;14.80;99.90
17128;DHT22;8679;50.842;4.322;2022-10-13T14:10:57;14.80;99.90
17128;DHT22;8679;50.842;4.322;2022-10-13T14:13:23;14.90;99.90
17128;DHT22;8679;50.842;4.322;2022-10-13T14:15:59;14.80;99.90
17128;DHT22;8679;50.842;4.322;2022-10-13T14:18:25;14.90;99.90
17128;DHT22;8679;50.842;4.322;2022-10-13T14:20:51;14.90;99.90
17128;DHT22;8679;50.842;4.322;2022-10-13T14:23:17;15.00;99.90
17128;DHT22;8679;50.842;4.322;2022-10-13T14:25:43;15.00;99.90
17128;DHT22;8679;50.842;4.322;2022-10-13T14:28:09;15.10;99.90
17128;DHT22;8679;50.842;4.322;2022-10-13T14:30:38;15.00;99.90
17128;DHT22;8679;50.842;4.322;2022-10-13T14:33:03;15.10;99.90
17128;DHT22;8679;50.842;4.322;2022-10-13T14:35:29;15.00;99.90
17128;DHT22;8679;50.842;4.322;2022-10-13T14:37:55;15.00;99.90
17128;DHT22;8679;50.842;4.322;2022-10-13T14:40:20;14.90;99.90
17128;DHT22;8679;50.842;4.322;2022-10-13T14:42:46;14.80;99.90
17128;DHT22;8679;50.842;4.322;2022-10-13T14:45:12;14.80;99.90
17128;DHT22;8679;50.842;4.322;2022-10-13T14:47:38;14.80;99.90
17128;DHT22;8679;50.842;4.322;2022-10-13T14:50:04;14.70;99.90
17128;DHT22;8679;50.842;4.322;2022-10-13T14:52:30;14.70;99.90
17128;DHT22;8679;50.842;4.322;2022-10-13T14:54:55;14.60;99.90
17128;DHT22;8679;50.842;4.322;2022-10-13T14:57:21;14.70;99.90
17128;DHT22;8679;50.842;4.322;2022-10-13T14:59:47;14.60;99.90
17128;DHT22;8679;50.842;4.322;2022-10-13T15:02:12;14.60;99.90
17128;DHT22;8679;50.842;4.322;2022-10-13T15:04:38;14.60;99.90
17128;DHT22;8679;50.842;4.322;2022-10-13T15:07:04;14.60;99.90
17128;DHT22;8679;50.842;4.322;2022-10-13T15:09:30;14.60;99.90
17128;DHT22;8679;50.842;4.322;2022-10-13T15:11:56;14.60;99.90
17128;DHT22;8679;50.842;4.322;2022-10-13T15:14:22;14.60;99.90
17128;DHT22;8679;50.842;4.322;2022-10-13T15:16:47;14.60;99.90
17128;DHT22;8679;50.842;4.322;2022-10-13T15:19:13;14.60;99.90
17128;DHT22;8679;50.842;4.322;2022-10-13T15:21:39;14.60;99.90
17128;DHT22;8679;50.842;4.322;2022-10-13T15:24:05;14.60;99.90
17128;DHT22;8679;50.842;4.322;2022-10-13T15:26:31;14.50;99.90
17128;DHT22;8679;50.842;4.322;2022-10-13T15:28:58;14.50;99.90
17128;DHT22;8679;50.842;4.322;2022-10-13T15:31:23;14.50;99.90
17128;DHT22;8679;50.842;4.322;2022-10-13T15:33:51;14.50;99.90
17128;DHT22;8679;50.842;4.322;2022-10-13T15:36:17;14.50;99.90
17128;DHT22;8679;50.842;4.322;2022-10-13T15:38:44;14.50;99.90
17128;DHT22;8679;50.842;4.322;2022-10-13T15:41:10;14.50;99.90
17128;DHT22;8679;50.842;4.322;2022-10-13T15:43:36;14.50;99.90
17128;DHT22;8679;50.842;4.322;2022-10-13T15:46:05;14.50;99.90
17128;DHT22;8679;50.842;4.322;2022-10-13T15:48:31;14.50;99.90
17128;DHT22;8679;50.842;4.322;2022-10-13T15:50:57;14.40;99.90
17128;DHT22;8679;50.842;4.322;2022-10-13T15:53:22;14.50;99.90
17128;DHT22;8679;50.842;4.322;2022-10-13T15:55:49;14.50;99.90
17128;DHT22;8679;50.842;4.322;2022-10-13T15:58:15;14.40;99.90
17128;DHT22;8679;50.842;4.322;2022-10-13T16:00:41;14.40;99.90
17128;DHT22;8679;50.842;4.322;2022-10-13T16:03:14;14.50;99.90
17128;DHT22;8679;50.842;4.322;2022-10-13T16:05:41;14.40;99.90
17128;DHT22;8679;50.842;4.322;2022-10-13T16:08:07;14.40;99.90
17128;DHT22;8679;50.842;4.322;2022-10-13T16:10:32;14.40;99.90
17128;DHT22;8679;50.842;4.322;2022-10-13T16:12:58;14.40;99.90
17128;DHT22;8679;50.842;4.322;2022-10-13T16:15:24;14.40;99.90
17128;DHT22;8679;50.842;4.322;2022-10-13T16:17:50;14.40;99.90
17128;DHT22;8679;50.842;4.322;2022-10-13T16:20:16;14.30;99.90
17128;DHT22;8679;50.842;4.322;2022-10-13T16:22:42;14.30;99.90
17128;DHT22;8679;50.842;4.322;2022-10-13T16:25:08;14.30;99.90
17128;DHT22;8679;50.842;4.322;2022-10-13T16:27:35;14.30;99.90
17128;DHT22;8679;50.842;4.322;2022-10-13T16:30:01;14.30;99.90
17128;DHT22;8679;50.842;4.322;2022-10-13T16:32:26;14.30;99.90
17128;DHT22;8679;50.842;4.322;2022-10-13T16:34:52;14.20;99.90
17128;DHT22;8679;50.842;4.322;2022-10-13T16:37:18;14.30;99.90
17128;DHT22;8679;50.842;4.322;2022-10-13T16:39:44;14.20;99.90
17128;DHT22;8679;50.842;4.322;2022-10-13T16:42:10;14.20;99.90
17128;DHT22;8679;50.842;4.322;2022-10-13T16:44:35;14.20;99.90
17128;DHT22;8679;50.842;4.322;2022-10-13T16:47:01;14.20;99.90
17128;DHT22;8679;50.842;4.322;2022-10-13T16:49:29;14.20;99.90
17128;DHT22;8679;50.842;4.322;2022-10-13T16:51:55;14.20;99.90
17128;DHT22;8679;50.842;4.322;2022-10-13T16:54:21;14.10;99.90
17128;DHT22;8679;50.842;4.322;2022-10-13T16:56:46;14.20;99.90
17128;DHT22;8679;50.842;4.322;2022-10-13T16:59:12;14.20;99.90
17128;DHT22;8679;50.842;4.322;2022-10-13T17:01:38;14.10;99.90
17128;DHT22;8679;50.842;4.322;2022-10-13T17:04:05;14.20;99.90
17128;DHT22;8679;50.842;4.322;2022-10-13T17:06:31;14.10;99.90
17128;DHT22;8679;50.842;4.322;2022-10-13T17:08:59;14.10;99.90
17128;DHT22;8679;50.842;4.322;2022-10-13T17:11:28;14.10;99.90
17128;DHT22;8679;50.842;4.322;2022-10-13T17:13:58;14.20;99.90
17128;DHT22;8679;50.842;4.322;2022-10-13T17:16:25;14.30;99.90
17128;DHT22;8679;50.842;4.322;2022-10-13T17:18:51;14.20;99.90
17128;DHT22;8679;50.842;4.322;2022-10-13T17:21:18;14.20;99.90
17128;DHT22;8679;50.842;4.322;2022-10-13T17:23:45;14.20;99.90
17128;DHT22;8679;50.842;4.322;2022-10-13T17:26:12;14.20;99.90
17128;DHT22;8679;50.842;4.322;2022-10-13T17:28:39;14.20;99.90
17128;DHT22;8679;50.842;4.322;2022-10-13T17:31:12;14.20;99.90
17128;DHT22;8679;50.842;4.322;2022-10-13T17:33:39;14.20;99.90
17128;DHT22;8679;50.842;4.322;2022-10-13T17:38:40;14.20;99.90
17128;DHT22;8679;50.842;4.322;2022-10-13T17:41:07;14.10;99.90
17128;DHT22;8679;50.842;4.322;2022-10-13T17:43:35;14.20;99.90